sensor_id;sensor_type;location;lat;lon;timestamp;temperature;humidity
4651;DHT22;2338;49.602;8.722;2024-03-29T00:00:43;6.60;99.90
4651;DHT22;2338;49.602;8.722;2024-03-29T00:03:30;6.50;99.90
4651;DHT22;2338;49.602;8.722;2024-03-29T00:06:14;6.50;99.90
4651;DHT22;2338;49.602;8.722;2024-03-29T00:08:59;6.60;99.90
4651;DHT22;2338;49.602;8.722;2024-03-29T00:11:44;6.50;99.90
4651;DHT22;2338;49.602;8.722;2024-03-29T00:14:28;6.50;99.90
4651;DHT22;2338;49.602;8.722;2024-03-29T00:17:13;6.50;99.90
4651;DHT22;2338;49.602;8.722;2024-03-29T00:19:59;6.50;99.90
4651;DHT22;2338;49.602;8.722;2024-03-29T00:22:44;6.60;99.90
4651;DHT22;2338;49.602;8.722;2024-03-29T00:25:29;6.70;99.90
4651;DHT22;2338;49.602;8.722;2024-03-29T00:28:13;6.70;99.90
4651;DHT22;2338;49.602;8.722;2024-03-29T00:30:58;6.70;99.90
4651;DHT22;2338;49.602;8.722;2024-03-29T00:33:42;6.70;99.90
4651;DHT22;2338;49.602;8.722;2024-03-29T00:36:28;6.80;99.90
4651;DHT22;2338;49.602;8.722;2024-03-29T00:39:13;6.90;99.90
4651;DHT22;2338;49.602;8.722;2024-03-29T00:41:57;6.90;99.90
4651;DHT22;2338;49.602;8.722;2024-03-29T00:44:42;7.00;99.90
4651;DHT22;2338;49.602;8.722;2024-03-29T00:47:27;7.00;99.90
4651;DHT22;2338;49.602;8.722;2024-03-29T00:50:12;7.10;99.90
4651;DHT22;2338;49.602;8.722;2024-03-29T00:52:58;7.10;99.90
4651;DHT22;2338;49.602;8.722;2024-03-29T00:55:44;7.20;99.90
4651;DHT22;2338;49.602;8.722;2024-03-29T00:58:28;7.20;99.90
4651;DHT22;2338;49.602;8.722;2024-03-29T01:01:13;7.20;99.90
4651;DHT22;2338;49.602;8.722;2024-03-29T01:03:57;7.20;99.90
4651;DHT22;2338;49.602;8.722;2024-03-29T01:06:42;7.30;99.90
4651;DHT22;2338;49.602;8.722;2024-03-29T01:09:29;7.40;99.90
4651;DHT22;2338;49.602;8.722;2024-03-29T01:12:13;7.40;99.90
4651;DHT22;2338;49.602;8.722;2024-03-29T01:14:59;7.30;99.90
4651;DHT22;2338;49.602;8.722;2024-03-29T01:17:43;7.40;99.90
4651;DHT22;2338;49.602;8.722;2024-03-29T01:20:28;7.50;99.90
4651;DHT22;2338;49.602;8.722;2024-03-29T01:23:13;7.50;99.90
4651;DHT22;2338;49.602;8.722;2024-03-29T01:25:59;7.50;99.90
4651;DHT22;2338;49.602;8.722;2024-03-29T01:28:43;7.60;99.90
4651;DHT22;2338;49.602;8.722;2024-03-29T01:31:28;7.60;99.90
4651;DHT22;2338;49.602;8.722;2024-03-29T01:34:12;7.70;99.90
4651;DHT22;2338;49.602;8.722;2024-03-29T01:36:57;7.60;99.90
4651;DHT22;2338;49.602;8.722;2024-03-29T01:39:41;7.70;99.90
4651;DHT22;2338;49.602;8.722;2024-03-29T01:42:28;7.70;99.90
4651;DHT22;2338;49.602;8.722;2024-03-29T01:45:12;7.60;99.90
4651;DHT22;2338;49.602;8.722;2024-03-29T01:47:58;7.70;99.90
4651;DHT22;2338;49.602;8.722;2024-03-29T01:50:45;7.70;99.90
4651;DHT22;2338;49.602;8.722;2024-03-29T01:53:31;7.80;99.90
4651;DHT22;2338;49.602;8.722;2024-03-29T01:56:16;7.90;99.90
4651;DHT22;2338;49.602;8.722;2024-03-29T01:59:04;7.90;99.90
4651;DHT22;2338;49.602;8.722;2024-03-29T02:01:49;8.10;99.90
4651;DHT22;2338;49.602;8.722;2024-03-29T02:04:35;8.10;99.90
4651;DHT22;2338;49.602;8.722;2024-03-29T02:07:21;8.10;99.90
4651;DHT22;2338;49.602;8.722;2024-03-29T02:10:09;8.10;99.90
4651;DHT22;2338;49.602;8.722;2024-03-29T02:12:57;8.10;99.90
4651;DHT22;2338;49.602;8.722;2024-03-29T02:15:44;8.20;99.90
4651;DHT22;2338;49.602;8.722;2024-03-29T02:18:29;8.30;99.90
4651;DHT22;2338;49.602;8.722;2024-03-29T02:21:15;8.20;99.90
4651;DHT22;2338;49.602;8.722;2024-03-29T02:24:05;8.30;99.90
4651;DHT22;2338;49.602;8.722;2024-03-29T02:26:52;8.40;99.90
4651;DHT22;2338;49.602;8.722;2024-03-29T02:29:38;8.40;99.90
4651;DHT22;2338;49.602;8.722;2024-03-29T02:32:23;8.50;99.90
4651;DHT22;2338;49.602;8.722;2024-03-29T02:35:09;8.60;99.90
4651;DHT22;2338;49.602;8.722;2024-03-29T02:37:55;8.60;99.90
4651;DHT22;2338;49.602;8.722;2024-03-29T02:40:42;8.70;99.90
4651;DHT22;2338;49.602;8.722;2024-03-29T02:43:28;8.70;99.90
4651;DHT22;2338;49.602;8.722;2024-03-29T02:46:14;8.70;99.90
4651;DHT22;2338;49.602;8.722;2024-03-29T02:48:59;8.80;99.90
4651;DHT22;2338;49.602;8.722;2024-03-29T02:51:44;8.80;99.90
4651;DHT22;2338;49.602;8.722;2024-03-29T02:54:30;8.90;99.90
4651;DHT22;2338;49.602;8.722;2024-03-29T02:57:16;9.00;99.90
4651;DHT22;2338;49.602;8.722;2024-03-29T03:00:02;9.10;99.90
4651;DHT22;2338;49.602;8.722;2024-03-29T03:02:47;9.30;86.40
4651;DHT22;2338;49.602;8.722;2024-03-29T03:05:33;9.50;85.80
4651;DHT22;2338;49.602;8.722;2024-03-29T03:08:18;9.60;84.30
4651;DHT22;2338;49.602;8.722;2024-03-29T03:11:21;9.70;86.50
4651;DHT22;2338;49.602;8.722;2024-03-29T03:14:08;9.90;77.30
4651;DHT22;2338;49.602;8.722;2024-03-29T03:16:54;10.00;71.80
4651;DHT22;2338;49.602;8.722;2024-03-29T03:19:39;10.10;67.30
4651;DHT22;2338;49.602;8.722;2024-03-29T03:22:24;10.20;64.20
4651;DHT22;2338;49.602;8.722;2024-03-29T03:25:10;10.30;60.70
4651;DHT22;2338;49.602;8.722;2024-03-29T03:27:55;10.40;59.60
4651;DHT22;2338;49.602;8.722;2024-03-29T03:30:42;10.40;58.00
4651;DHT22;2338;49.602;8.722;2024-03-29T03:33:27;10.50;55.30
4651;DHT22;2338;49.602;8.722;2024-03-29T03:36:12;10.60;47.90
4651;DHT22;2338;49.602;8.722;2024-03-29T03:38:57;10.70;43.40
4651;DHT22;2338;49.602;8.722;2024-03-29T03:41:43;10.80;43.50
4651;DHT22;2338;49.602;8.722;2024-03-29T03:44:28;10.90;41.90
4651;DHT22;2338;49.602;8.722;2024-03-29T03:47:15;10.90;40.50
4651;DHT22;2338;49.602;8.722;2024-03-29T03:49:59;10.90;42.60
4651;DHT22;2338;49.602;8.722;2024-03-29T03:52:45;11.00;37.30
4651;DHT22;2338;49.602;8.722;2024-03-29T03:55:29;11.00;37.00
4651;DHT22;2338;49.602;8.722;2024-03-29T03:58:15;11.10;40.90
4651;DHT22;2338;49.602;8.722;2024-03-29T04:01:04;11.10;40.30
4651;DHT22;2338;49.602;8.722;2024-03-29T04:03:51;11.10;42.50
4651;DHT22;2338;49.602;8.722;2024-03-29T04:06:35;11.10;42.10
4651;DHT22;2338;49.602;8.722;2024-03-29T04:09:21;11.00;37.70
4651;DHT22;2338;49.602;8.722;2024-03-29T04:12:07;11.00;43.70
4651;DHT22;2338;49.602;8.722;2024-03-29T04:14:51;11.00;41.10
4651;DHT22;2338;49.602;8.722;2024-03-29T04:17:37;11.00;43.70
4651;DHT22;2338;49.602;8.722;2024-03-29T04:20:23;11.00;47.50
4651;DHT22;2338;49.602;8.722;2024-03-29T04:23:09;11.00;43.70
4651;DHT22;2338;49.602;8.722;2024-03-29T04:25:55;11.10;44.50
4651;DHT22;2338;49.602;8.722;2024-03-29T04:28:45;11.10;44.80
4651;DHT22;2338;49.602;8.722;2024-03-29T04:31:29;11.10;46.10
4651;DHT22;2338;49.602;8.722;2024-03-29T04:34:15;11.20;43.90
4651;DHT22;2338;49.602;8.722;2024-03-29T04:37:01;11.20;46.40
4651;DHT22;2338;49.602;8.722;2024-03-29T04:39:46;11.20;51.70
4651;DHT22;2338;49.602;8.722;2024-03-29T04:42:32;11.10;60.20
4651;DHT22;2338;49.602;8.722;2024-03-29T04:45:18;11.00;73.90
4651;DHT22;2338;49.602;8.722;2024-03-29T04:48:05;10.80;92.70
4651;DHT22;2338;49.602;8.722;2024-03-29T04:50:50;10.70;97.80
4651;DHT22;2338;49.602;8.722;2024-03-29T04:53:38;10.60;99.90
4651;DHT22;2338;49.602;8.722;2024-03-29T04:56:24;10.50;99.90
4651;DHT22;2338;49.602;8.722;2024-03-29T04:59:09;10.30;99.90
4651;DHT22;2338;49.602;8.722;2024-03-29T05:01:55;10.10;99.90
4651;DHT22;2338;49.602;8.722;2024-03-29T05:04:41;10.10;99.90
4651;DHT22;2338;49.602;8.722;2024-03-29T05:07:27;10.00;99.90
4651;DHT22;2338;49.602;8.722;2024-03-29T05:10:14;10.00;99.90
4651;DHT22;2338;49.602;8.722;2024-03-29T05:13:00;9.90;99.90
4651;DHT22;2338;49.602;8.722;2024-03-29T05:15:46;9.90;99.90
4651;DHT22;2338;49.602;8.722;2024-03-29T05:18:32;9.90;99.90
4651;DHT22;2338;49.602;8.722;2024-03-29T05:21:17;9.90;99.90
4651;DHT22;2338;49.602;8.722;2024-03-29T05:24:04;9.80;99.90
4651;DHT22;2338;49.602;8.722;2024-03-29T05:26:51;9.80;99.90
4651;DHT22;2338;49.602;8.722;2024-03-29T05:29:36;9.80;99.90
4651;DHT22;2338;49.602;8.722;2024-03-29T05:32:22;9.70;99.90
4651;DHT22;2338;49.602;8.722;2024-03-29T05:35:08;9.80;99.90
4651;DHT22;2338;49.602;8.722;2024-03-29T05:37:54;9.70;99.90
4651;DHT22;2338;49.602;8.722;2024-03-29T05:40:40;9.60;99.90
4651;DHT22;2338;49.602;8.722;2024-03-29T05:43:27;9.60;99.90
4651;DHT22;2338;49.602;8.722;2024-03-29T05:46:15;9.50;99.90
4651;DHT22;2338;49.602;8.722;2024-03-29T05:49:01;9.50;99.90
4651;DHT22;2338;49.602;8.722;2024-03-29T05:51:47;9.50;99.90
4651;DHT22;2338;49.602;8.722;2024-03-29T05:54:32;9.50;99.90
4651;DHT22;2338;49.602;8.722;2024-03-29T05:57:18;9.50;99.90
4651;DHT22;2338;49.602;8.722;2024-03-29T06:00:07;9.50;99.90
4651;DHT22;2338;49.602;8.722;2024-03-29T06:02:53;9.50;99.90
4651;DHT22;2338;49.602;8.722;2024-03-29T06:05:40;9.50;99.90
4651;DHT22;2338;49.602;8.722;2024-03-29T06:08:25;9.50;99.90
4651;DHT22;2338;49.602;8.722;2024-03-29T06:11:11;9.50;99.90
4651;DHT22;2338;49.602;8.722;2024-03-29T06:13:57;9.50;99.90
4651;DHT22;2338;49.602;8.722;2024-03-29T06:17:01;9.50;99.90
4651;DHT22;2338;49.602;8.722;2024-03-29T06:20:06;9.50;99.90
4651;DHT22;2338;49.602;8.722;2024-03-29T06:22:52;9.60;99.90
4651;DHT22;2338;49.602;8.722;2024-03-29T06:25:38;9.60;99.90
4651;DHT22;2338;49.602;8.722;2024-03-29T06:28:24;9.60;99.90
4651;DHT22;2338;49.602;8.722;2024-03-29T06:31:10;9.60;99.90
4651;DHT22;2338;49.602;8.722;2024-03-29T06:33:57;9.70;99.90
4651;DHT22;2338;49.602;8.722;2024-03-29T06:36:43;9.60;99.90
4651;DHT22;2338;49.602;8.722;2024-03-29T06:39:28;9.70;99.90
4651;DHT22;2338;49.602;8.722;2024-03-29T06:42:14;9.70;99.90
4651;DHT22;2338;49.602;8.722;2024-03-29T06:44:59;9.80;99.90
4651;DHT22;2338;49.602;8.722;2024-03-29T06:47:46;9.80;99.90
4651;DHT22;2338;49.602;8.722;2024-03-29T06:50:33;9.80;99.90
4651;DHT22;2338;49.602;8.722;2024-03-29T06:53:19;9.80;99.90
4651;DHT22;2338;49.602;8.722;2024-03-29T06:56:06;9.80;99.90
4651;DHT22;2338;49.602;8.722;2024-03-29T06:58:51;9.90;99.90
4651;DHT22;2338;49.602;8.722;2024-03-29T07:01:37;9.90;99.90
4651;DHT22;2338;49.602;8.722;2024-03-29T07:04:23;9.90;99.90
4651;DHT22;2338;49.602;8.722;2024-03-29T07:07:10;10.00;99.90
4651;DHT22;2338;49.602;8.722;2024-03-29T07:09:56;10.00;99.90
4651;DHT22;2338;49.602;8.722;2024-03-29T07:12:42;10.10;99.90
4651;DHT22;2338;49.602;8.722;2024-03-29T07:15:28;10.10;99.90
4651;DHT22;2338;49.602;8.722;2024-03-29T07:18:13;10.20;99.90
4651;DHT22;2338;49.602;8.722;2024-03-29T07:20:59;10.20;99.90
4651;DHT22;2338;49.602;8.722;2024-03-29T07:23:46;10.20;99.90
4651;DHT22;2338;49.602;8.722;2024-03-29T07:26:31;10.30;99.90
4651;DHT22;2338;49.602;8.722;2024-03-29T07:29:17;10.30;99.90
4651;DHT22;2338;49.602;8.722;2024-03-29T07:32:04;10.30;99.90
4651;DHT22;2338;49.602;8.722;2024-03-29T07:34:49;10.40;99.90
4651;DHT22;2338;49.602;8.722;2024-03-29T07:37:35;10.40;99.90
4651;DHT22;2338;49.602;8.722;2024-03-29T07:40:22;10.50;99.90
4651;DHT22;2338;49.602;8.722;2024-03-29T07:43:08;10.60;99.90
4651;DHT22;2338;49.602;8.722;2024-03-29T07:45:53;10.60;99.90
4651;DHT22;2338;49.602;8.722;2024-03-29T07:48:39;10.70;99.90
4651;DHT22;2338;49.602;8.722;2024-03-29T07:51:25;10.80;99.90
4651;DHT22;2338;49.602;8.722;2024-03-29T07:54:11;10.80;99.90
4651;DHT22;2338;49.602;8.722;2024-03-29T07:56:58;10.80;99.90
4651;DHT22;2338;49.602;8.722;2024-03-29T07:59:43;10.90;99.90
4651;DHT22;2338;49.602;8.722;2024-03-29T08:02:29;11.00;99.90
4651;DHT22;2338;49.602;8.722;2024-03-29T08:05:15;11.00;99.90
4651;DHT22;2338;49.602;8.722;2024-03-29T08:08:01;11.10;99.90
4651;DHT22;2338;49.602;8.722;2024-03-29T08:10:48;11.20;99.90
4651;DHT22;2338;49.602;8.722;2024-03-29T08:13:35;11.20;99.90
4651;DHT22;2338;49.602;8.722;2024-03-29T08:16:20;11.20;95.10
4651;DHT22;2338;49.602;8.722;2024-03-29T08:19:05;11.30;99.90
4651;DHT22;2338;49.602;8.722;2024-03-29T08:21:51;11.30;98.00
4651;DHT22;2338;49.602;8.722;2024-03-29T08:24:37;11.30;99.90
4651;DHT22;2338;49.602;8.722;2024-03-29T08:27:23;11.30;99.90
4651;DHT22;2338;49.602;8.722;2024-03-29T08:30:11;11.30;99.90
4651;DHT22;2338;49.602;8.722;2024-03-29T08:32:57;11.30;99.90
4651;DHT22;2338;49.602;8.722;2024-03-29T08:35:43;11.20;99.90
4651;DHT22;2338;49.602;8.722;2024-03-29T08:38:29;11.20;99.90
4651;DHT22;2338;49.602;8.722;2024-03-29T08:41:15;11.00;99.90
4651;DHT22;2338;49.602;8.722;2024-03-29T08:44:00;10.90;99.90
4651;DHT22;2338;49.602;8.722;2024-03-29T08:46:48;10.80;99.90
4651;DHT22;2338;49.602;8.722;2024-03-29T08:49:33;10.80;99.90
4651;DHT22;2338;49.602;8.722;2024-03-29T08:52:19;10.70;99.90
4651;DHT22;2338;49.602;8.722;2024-03-29T08:55:05;10.60;99.90
4651;DHT22;2338;49.602;8.722;2024-03-29T08:57:51;10.60;99.90
4651;DHT22;2338;49.602;8.722;2024-03-29T09:00:38;10.50;99.90
4651;DHT22;2338;49.602;8.722;2024-03-29T09:03:25;10.60;99.90
4651;DHT22;2338;49.602;8.722;2024-03-29T09:06:11;10.60;99.90
4651;DHT22;2338;49.602;8.722;2024-03-29T09:08:56;10.60;99.90
4651;DHT22;2338;49.602;8.722;2024-03-29T09:11:42;10.60;99.90
4651;DHT22;2338;49.602;8.722;2024-03-29T09:14:28;10.60;99.90
4651;DHT22;2338;49.602;8.722;2024-03-29T09:17:13;10.60;99.90
4651;DHT22;2338;49.602;8.722;2024-03-29T09:20:00;10.60;99.90
4651;DHT22;2338;49.602;8.722;2024-03-29T09:22:51;10.60;99.90
4651;DHT22;2338;49.602;8.722;2024-03-29T09:25:40;10.50;99.90
4651;DHT22;2338;49.602;8.722;2024-03-29T09:28:25;10.60;99.90
4651;DHT22;2338;49.602;8.722;2024-03-29T09:31:11;10.60;99.90
4651;DHT22;2338;49.602;8.722;2024-03-29T09:33:56;10.60;99.90
4651;DHT22;2338;49.602;8.722;2024-03-29T09:36:44;10.70;99.90
4651;DHT22;2338;49.602;8.722;2024-03-29T09:39:29;10.70;99.90
4651;DHT22;2338;49.602;8.722;2024-03-29T09:42:16;10.70;99.90
4651;DHT22;2338;49.602;8.722;2024-03-29T09:45:03;10.80;99.90
4651;DHT22;2338;49.602;8.722;2024-03-29T09:47:51;10.80;99.90
4651;DHT22;2338;49.602;8.722;2024-03-29T09:50:38;10.80;99.90
4651;DHT22;2338;49.602;8.722;2024-03-29T09:53:25;10.80;99.90
4651;DHT22;2338;49.602;8.722;2024-03-29T09:56:11;10.80;99.90
4651;DHT22;2338;49.602;8.722;2024-03-29T09:58:57;10.80;99.90
4651;DHT22;2338;49.602;8.722;2024-03-29T10:01:43;10.80;99.90
4651;DHT22;2338;49.602;8.722;2024-03-29T10:04:29;10.80;99.90
4651;DHT22;2338;49.602;8.722;2024-03-29T10:07:15;10.80;99.90
4651;DHT22;2338;49.602;8.722;2024-03-29T10:10:03;10.80;99.90
4651;DHT22;2338;49.602;8.722;2024-03-29T10:12:48;10.70;99.90
4651;DHT22;2338;49.602;8.722;2024-03-29T10:15:34;10.80;99.90
4651;DHT22;2338;49.602;8.722;2024-03-29T10:18:22;10.80;99.90
4651;DHT22;2338;49.602;8.722;2024-03-29T10:21:08;10.90;99.90
4651;DHT22;2338;49.602;8.722;2024-03-29T10:23:54;10.90;99.90
4651;DHT22;2338;49.602;8.722;2024-03-29T10:26:42;11.00;99.90
4651;DHT22;2338;49.602;8.722;2024-03-29T10:29:28;11.00;99.90
4651;DHT22;2338;49.602;8.722;2024-03-29T10:32:14;11.00;99.90
4651;DHT22;2338;49.602;8.722;2024-03-29T10:35:00;11.00;99.90
4651;DHT22;2338;49.602;8.722;2024-03-29T10:37:47;11.10;99.90
4651;DHT22;2338;49.602;8.722;2024-03-29T10:40:33;11.10;99.90
4651;DHT22;2338;49.602;8.722;2024-03-29T10:43:21;11.20;99.90
4651;DHT22;2338;49.602;8.722;2024-03-29T10:46:06;11.20;99.90
4651;DHT22;2338;49.602;8.722;2024-03-29T10:48:53;11.30;99.90
4651;DHT22;2338;49.602;8.722;2024-03-29T10:51:39;11.40;99.90
4651;DHT22;2338;49.602;8.722;2024-03-29T10:54:25;11.40;99.90
4651;DHT22;2338;49.602;8.722;2024-03-29T10:57:16;11.50;99.90
4651;DHT22;2338;49.602;8.722;2024-03-29T11:00:11;11.60;99.90
4651;DHT22;2338;49.602;8.722;2024-03-29T11:03:08;11.70;99.90
4651;DHT22;2338;49.602;8.722;2024-03-29T11:05:59;11.70;99.90
4651;DHT22;2338;49.602;8.722;2024-03-29T11:08:49;11.80;99.90
4651;DHT22;2338;49.602;8.722;2024-03-29T11:11:37;11.90;99.90
4651;DHT22;2338;49.602;8.722;2024-03-29T11:14:29;12.00;99.90
4651;DHT22;2338;49.602;8.722;2024-03-29T11:17:18;12.00;99.90
4651;DHT22;2338;49.602;8.722;2024-03-29T11:20:05;12.10;99.90
4651;DHT22;2338;49.602;8.722;2024-03-29T11:22:51;12.10;99.90
4651;DHT22;2338;49.602;8.722;2024-03-29T11:25:41;12.10;99.90
4651;DHT22;2338;49.602;8.722;2024-03-29T11:28:30;12.10;99.90
4651;DHT22;2338;49.602;8.722;2024-03-29T11:31:17;12.10;99.90
4651;DHT22;2338;49.602;8.722;2024-03-29T11:34:08;12.20;99.90
4651;DHT22;2338;49.602;8.722;2024-03-29T11:36:55;12.30;99.90
4651;DHT22;2338;49.602;8.722;2024-03-29T11:39:40;12.40;99.90
4651;DHT22;2338;49.602;8.722;2024-03-29T11:42:43;12.50;99.90
4651;DHT22;2338;49.602;8.722;2024-03-29T11:45:29;12.50;99.90
4651;DHT22;2338;49.602;8.722;2024-03-29T11:48:21;12.60;99.90
4651;DHT22;2338;49.602;8.722;2024-03-29T11:51:11;12.60;99.90
4651;DHT22;2338;49.602;8.722;2024-03-29T11:54:00;12.60;99.90
4651;DHT22;2338;49.602;8.722;2024-03-29T11:56:45;12.60;99.90
4651;DHT22;2338;49.602;8.722;2024-03-29T11:59:32;12.60;99.90
4651;DHT22;2338;49.602;8.722;2024-03-29T12:02:18;12.50;99.90
4651;DHT22;2338;49.602;8.722;2024-03-29T12:05:06;12.50;99.90
4651;DHT22;2338;49.602;8.722;2024-03-29T12:07:55;12.40;99.90
4651;DHT22;2338;49.602;8.722;2024-03-29T12:10:41;12.40;99.90
4651;DHT22;2338;49.602;8.722;2024-03-29T12:13:27;12.40;99.90
4651;DHT22;2338;49.602;8.722;2024-03-29T12:16:12;12.40;99.90
4651;DHT22;2338;49.602;8.722;2024-03-29T12:18:58;12.40;99.90
4651;DHT22;2338;49.602;8.722;2024-03-29T12:21:43;12.30;99.90
4651;DHT22;2338;49.602;8.722;2024-03-29T12:24:31;12.30;99.90
4651;DHT22;2338;49.602;8.722;2024-03-29T12:27:16;12.20;99.90
4651;DHT22;2338;49.602;8.722;2024-03-29T12:30:03;12.20;99.90
4651;DHT22;2338;49.602;8.722;2024-03-29T12:33:00;12.20;99.90
4651;DHT22;2338;49.602;8.722;2024-03-29T12:35:46;12.20;99.90
4651;DHT22;2338;49.602;8.722;2024-03-29T12:38:33;12.20;99.90
4651;DHT22;2338;49.602;8.722;2024-03-29T12:41:20;12.30;99.90
4651;DHT22;2338;49.602;8.722;2024-03-29T12:44:08;12.30;99.90
4651;DHT22;2338;49.602;8.722;2024-03-29T12:46:54;12.40;99.90
4651;DHT22;2338;49.602;8.722;2024-03-29T12:49:40;12.30;99.90
4651;DHT22;2338;49.602;8.722;2024-03-29T12:52:27;12.40;99.90
4651;DHT22;2338;49.602;8.722;2024-03-29T12:55:12;12.50;99.90
4651;DHT22;2338;49.602;8.722;2024-03-29T12:58:03;12.40;99.90
4651;DHT22;2338;49.602;8.722;2024-03-29T13:00:51;12.40;99.90
4651;DHT22;2338;49.602;8.722;2024-03-29T13:03:38;12.40;99.90
4651;DHT22;2338;49.602;8.722;2024-03-29T13:06:25;12.50;99.90
4651;DHT22;2338;49.602;8.722;2024-03-29T13:09:10;12.50;99.90
4651;DHT22;2338;49.602;8.722;2024-03-29T13:11:57;12.50;99.90
4651;DHT22;2338;49.602;8.722;2024-03-29T13:14:44;12.50;99.90
4651;DHT22;2338;49.602;8.722;2024-03-29T13:17:30;12.50;99.90
4651;DHT22;2338;49.602;8.722;2024-03-29T13:20:16;12.50;99.90
4651;DHT22;2338;49.602;8.722;2024-03-29T13:23:01;12.50;99.90
4651;DHT22;2338;49.602;8.722;2024-03-29T13:25:47;12.40;99.90
4651;DHT22;2338;49.602;8.722;2024-03-29T13:28:33;12.50;99.90
4651;DHT22;2338;49.602;8.722;2024-03-29T13:31:20;12.40;99.90
4651;DHT22;2338;49.602;8.722;2024-03-29T13:34:07;12.40;99.90
4651;DHT22;2338;49.602;8.722;2024-03-29T13:36:57;12.40;99.90
4651;DHT22;2338;49.602;8.722;2024-03-29T13:39:43;12.40;99.90
4651;DHT22;2338;49.602;8.722;2024-03-29T13:42:28;12.30;99.90
4651;DHT22;2338;49.602;8.722;2024-03-29T13:45:15;12.40;99.90
4651;DHT22;2338;49.602;8.722;2024-03-29T13:48:03;12.40;99.90
4651;DHT22;2338;49.602;8.722;2024-03-29T13:50:49;12.40;99.90
4651;DHT22;2338;49.602;8.722;2024-03-29T13:53:35;12.40;99.90
4651;DHT22;2338;49.602;8.722;2024-03-29T13:56:21;12.30;99.90
4651;DHT22;2338;49.602;8.722;2024-03-29T13:59:07;12.30;99.90
4651;DHT22;2338;49.602;8.722;2024-03-29T14:01:53;12.30;99.90
4651;DHT22;2338;49.602;8.722;2024-03-29T14:04:40;12.30;99.90
4651;DHT22;2338;49.602;8.722;2024-03-29T14:07:25;12.30;99.90
4651;DHT22;2338;49.602;8.722;2024-03-29T14:10:12;12.30;99.90
4651;DHT22;2338;49.602;8.722;2024-03-29T14:12:59;12.30;99.90
4651;DHT22;2338;49.602;8.722;2024-03-29T14:15:45;12.40;99.90
4651;DHT22;2338;49.602;8.722;2024-03-29T14:18:31;12.40;99.90
4651;DHT22;2338;49.602;8.722;2024-03-29T14:21:18;12.40;99.90
4651;DHT22;2338;49.602;8.722;2024-03-29T14:24:04;12.50;99.90
4651;DHT22;2338;49.602;8.722;2024-03-29T14:26:50;12.40;99.90
4651;DHT22;2338;49.602;8.722;2024-03-29T14:29:36;12.50;99.90
4651;DHT22;2338;49.602;8.722;2024-03-29T14:32:22;12.40;99.90
4651;DHT22;2338;49.602;8.722;2024-03-29T14:35:08;12.50;99.90
4651;DHT22;2338;49.602;8.722;2024-03-29T14:37:56;12.50;99.90
4651;DHT22;2338;49.602;8.722;2024-03-29T14:40:41;12.50;99.90
4651;DHT22;2338;49.602;8.722;2024-03-29T14:43:27;12.70;99.90
4651;DHT22;2338;49.602;8.722;2024-03-29T14:46:13;12.80;99.90
4651;DHT22;2338;49.602;8.722;2024-03-29T14:48:58;12.90;99.90
4651;DHT22;2338;49.602;8.722;2024-03-29T14:51:44;13.00;99.90
4651;DHT22;2338;49.602;8.722;2024-03-29T14:54:31;13.10;99.90
4651;DHT22;2338;49.602;8.722;2024-03-29T14:57:17;13.10;99.90
4651;DHT22;2338;49.602;8.722;2024-03-29T15:00:07;13.20;99.90
4651;DHT22;2338;49.602;8.722;2024-03-29T15:02:53;13.20;99.90
4651;DHT22;2338;49.602;8.722;2024-03-29T15:05:39;13.30;99.90
4651;DHT22;2338;49.602;8.722;2024-03-29T15:08:26;13.30;99.90
4651;DHT22;2338;49.602;8.722;2024-03-29T15:11:13;13.30;99.90
4651;DHT22;2338;49.602;8.722;2024-03-29T15:13:59;13.30;99.90
4651;DHT22;2338;49.602;8.722;2024-03-29T15:16:45;13.30;99.90
4651;DHT22;2338;49.602;8.722;2024-03-29T15:19:31;13.30;99.90
4651;DHT22;2338;49.602;8.722;2024-03-29T15:22:17;13.30;99.90
4651;DHT22;2338;49.602;8.722;2024-03-29T15:25:03;13.30;99.90
4651;DHT22;2338;49.602;8.722;2024-03-29T15:27:50;13.30;99.90
4651;DHT22;2338;49.602;8.722;2024-03-29T15:30:53;13.30;99.90
4651;DHT22;2338;49.602;8.722;2024-03-29T15:33:42;13.30;99.90
4651;DHT22;2338;49.602;8.722;2024-03-29T15:36:27;13.30;99.90
4651;DHT22;2338;49.602;8.722;2024-03-29T15:39:13;13.30;99.90
4651;DHT22;2338;49.602;8.722;2024-03-29T15:42:04;13.30;99.90
4651;DHT22;2338;49.602;8.722;2024-03-29T15:44:55;13.30;99.90
4651;DHT22;2338;49.602;8.722;2024-03-29T15:47:40;13.40;99.90
4651;DHT22;2338;49.602;8.722;2024-03-29T15:50:26;13.50;99.90
4651;DHT22;2338;49.602;8.722;2024-03-29T15:53:11;13.70;99.90
4651;DHT22;2338;49.602;8.722;2024-03-29T15:55:57;13.80;99.90
4651;DHT22;2338;49.602;8.722;2024-03-29T15:58:44;13.90;99.90
4651;DHT22;2338;49.602;8.722;2024-03-29T16:01:31;14.10;99.90
4651;DHT22;2338;49.602;8.722;2024-03-29T16:04:17;14.20;99.90
4651;DHT22;2338;49.602;8.722;2024-03-29T16:07:02;14.30;99.90
4651;DHT22;2338;49.602;8.722;2024-03-29T16:09:48;14.40;99.90
4651;DHT22;2338;49.602;8.722;2024-03-29T16:12:34;14.40;99.90
4651;DHT22;2338;49.602;8.722;2024-03-29T16:15:19;14.40;99.90
4651;DHT22;2338;49.602;8.722;2024-03-29T16:18:07;14.30;99.90
4651;DHT22;2338;49.602;8.722;2024-03-29T16:20:53;14.30;99.90
4651;DHT22;2338;49.602;8.722;2024-03-29T16:23:38;14.20;99.90
4651;DHT22;2338;49.602;8.722;2024-03-29T16:26:24;14.10;99.90
4651;DHT22;2338;49.602;8.722;2024-03-29T16:29:08;14.10;99.90
4651;DHT22;2338;49.602;8.722;2024-03-29T16:31:58;14.20;99.90
4651;DHT22;2338;49.602;8.722;2024-03-29T16:34:43;14.20;99.90
4651;DHT22;2338;49.602;8.722;2024-03-29T16:37:29;14.20;99.90
4651;DHT22;2338;49.602;8.722;2024-03-29T16:40:14;14.20;99.90
4651;DHT22;2338;49.602;8.722;2024-03-29T16:43:00;14.20;99.90
4651;DHT22;2338;49.602;8.722;2024-03-29T16:45:44;14.20;99.90
4651;DHT22;2338;49.602;8.722;2024-03-29T16:48:30;14.10;99.90
4651;DHT22;2338;49.602;8.722;2024-03-29T16:51:16;13.90;99.90
4651;DHT22;2338;49.602;8.722;2024-03-29T16:54:02;13.80;99.90
4651;DHT22;2338;49.602;8.722;2024-03-29T16:56:46;13.70;99.90
4651;DHT22;2338;49.602;8.722;2024-03-29T16:59:32;13.50;99.90
4651;DHT22;2338;49.602;8.722;2024-03-29T17:02:18;13.40;99.90
4651;DHT22;2338;49.602;8.722;2024-03-29T17:05:04;13.40;99.90
4651;DHT22;2338;49.602;8.722;2024-03-29T17:07:51;13.30;99.90
4651;DHT22;2338;49.602;8.722;2024-03-29T17:10:36;13.10;99.90
4651;DHT22;2338;49.602;8.722;2024-03-29T17:13:21;13.00;99.90
4651;DHT22;2338;49.602;8.722;2024-03-29T17:16:07;12.90;99.90
4651;DHT22;2338;49.602;8.722;2024-03-29T17:18:51;12.90;99.90
4651;DHT22;2338;49.602;8.722;2024-03-29T17:21:37;12.80;99.90
4651;DHT22;2338;49.602;8.722;2024-03-29T17:24:23;12.80;99.90
4651;DHT22;2338;49.602;8.722;2024-03-29T17:27:09;12.80;99.90
4651;DHT22;2338;49.602;8.722;2024-03-29T17:29:53;12.80;99.90
4651;DHT22;2338;49.602;8.722;2024-03-29T17:32:39;12.70;99.90
4651;DHT22;2338;49.602;8.722;2024-03-29T17:35:24;12.70;99.90
4651;DHT22;2338;49.602;8.722;2024-03-29T17:38:10;12.60;99.90
4651;DHT22;2338;49.602;8.722;2024-03-29T17:40:57;12.50;99.90
4651;DHT22;2338;49.602;8.722;2024-03-29T17:43:43;12.40;99.90
4651;DHT22;2338;49.602;8.722;2024-03-29T17:46:28;12.30;99.90
4651;DHT22;2338;49.602;8.722;2024-03-29T17:49:13;12.20;99.90
4651;DHT22;2338;49.602;8.722;2024-03-29T17:51:58;12.20;99.90
4651;DHT22;2338;49.602;8.722;2024-03-29T17:54:44;12.00;99.90
4651;DHT22;2338;49.602;8.722;2024-03-29T17:57:31;12.00;99.90
4651;DHT22;2338;49.602;8.722;2024-03-29T18:00:16;11.90;99.90
4651;DHT22;2338;49.602;8.722;2024-03-29T18:03:03;11.90;99.90
4651;DHT22;2338;49.602;8.722;2024-03-29T18:05:47;11.80;99.90
4651;DHT22;2338;49.602;8.722;2024-03-29T18:08:33;11.80;99.90
4651;DHT22;2338;49.602;8.722;2024-03-29T18:11:18;11.70;99.90